createdAt,value
2023-05-12T00:00:44.164Z,0.71
2023-05-12T00:01:47.629Z,1.43
2023-05-12T00:02:50.901Z,4.00
2023-05-12T00:03:54.609Z,6.00
2023-05-12T00:04:57.978Z,5.29
2023-05-12T00:06:01.449Z,2.33
2023-05-12T00:07:04.704Z,1.57
2023-05-12T00:08:08.204Z,1.57
2023-05-12T00:09:11.589Z,0.71
2023-05-12T00:10:14.970Z,1.29
2023-05-12T00:11:18.242Z,1.67
2023-05-12T00:12:21.530Z,2.00
2023-05-12T00:13:25.197Z,1.57
2023-05-12T00:14:28.403Z,0.57
2023-05-12T00:15:31.702Z,0.14
2023-05-12T00:16:36.216Z,1.00
2023-05-12T00:17:39.505Z,0.50
2023-05-12T00:18:42.914Z,0.57
2023-05-12T00:19:46.364Z,0.00
2023-05-12T00:20:49.797Z,0.43
2023-05-12T00:21:53.443Z,0.50
2023-05-12T00:22:56.734Z,0.14
2023-05-12T00:24:00.138Z,0.00
2023-05-12T00:25:03.400Z,0.43
2023-05-12T00:26:07.101Z,0.67
2023-05-12T00:27:10.686Z,0.43
2023-05-12T00:28:14.173Z,0.57
2023-05-12T00:29:17.555Z,0.57
2023-05-12T00:30:21.058Z,0.00
2023-05-12T00:31:24.396Z,0.00
2023-05-12T00:32:27.490Z,0.00
2023-05-12T00:33:30.359Z,0.17
2023-05-12T00:34:33.371Z,0.43
2023-05-12T00:35:36.429Z,0.43
2023-05-12T00:36:39.528Z,0.00
2023-05-12T00:37:42.610Z,0.00
2023-05-12T00:38:46.887Z,0.33
2023-05-12T00:39:50.011Z,0.50
2023-05-12T00:40:53.294Z,0.33
2023-05-12T00:41:56.655Z,0.43
2023-05-12T00:42:59.853Z,0.14
2023-05-12T00:44:03.043Z,0.00
2023-05-12T00:45:06.091Z,0.00
2023-05-12T00:46:09.356Z,0.00
2023-05-12T00:47:12.400Z,0.00
2023-05-12T00:48:15.501Z,0.00
2023-05-12T00:49:18.635Z,0.00
2023-05-12T00:50:21.937Z,0.00
2023-05-12T00:51:25.410Z,0.00
2023-05-12T00:52:28.381Z,0.17
2023-05-12T00:53:44.996Z,0.00
2023-05-12T00:54:35.879Z,0.71
2023-05-12T00:55:39.054Z,0.43
2023-05-12T00:56:42.548Z,0.00
2023-05-12T00:57:45.735Z,0.00
2023-05-12T00:58:48.829Z,0.00
2023-05-12T00:59:51.887Z,0.00
2023-05-12T01:00:55.000Z,0.00
2023-05-12T01:01:58.046Z,0.00
2023-05-12T01:03:01.182Z,0.00
2023-05-12T01:04:04.436Z,0.00
2023-05-12T01:05:07.514Z,0.00
2023-05-12T01:06:10.572Z,0.43
2023-05-12T01:07:13.658Z,0.00
2023-05-12T01:08:16.624Z,0.00
2023-05-12T01:09:19.806Z,0.00
2023-05-12T01:10:23.118Z,0.00
2023-05-12T01:11:26.371Z,0.00
2023-05-12T01:12:29.450Z,0.00
2023-05-12T01:13:32.565Z,0.00
2023-05-12T01:14:35.717Z,0.00
2023-05-12T01:15:38.898Z,0.00
2023-05-12T01:16:42.060Z,0.00
2023-05-12T01:17:45.227Z,0.00
2023-05-12T01:18:48.279Z,0.00
2023-05-12T01:19:51.230Z,0.00
2023-05-12T01:20:54.397Z,0.00
2023-05-12T01:21:57.581Z,0.00
2023-05-12T01:23:00.667Z,0.00
2023-05-12T01:24:03.632Z,0.00
2023-05-12T01:25:06.714Z,0.00
2023-05-12T01:26:09.816Z,0.00
2023-05-12T01:27:12.976Z,0.00
2023-05-12T01:28:16.064Z,0.00
2023-05-12T01:29:19.160Z,0.00
2023-05-12T01:30:22.435Z,0.00
2023-05-12T01:31:25.753Z,0.00
2023-05-12T01:32:28.836Z,0.00
2023-05-12T01:33:31.907Z,0.00
2023-05-12T01:34:34.636Z,0.00
2023-05-12T01:35:37.715Z,0.00
2023-05-12T01:36:40.794Z,0.00
2023-05-12T01:37:43.973Z,0.00
2023-05-12T01:38:47.160Z,0.00
2023-05-12T01:39:50.439Z,0.00
2023-05-12T01:40:53.537Z,0.00
2023-05-12T01:41:56.919Z,0.00
2023-05-12T01:43:00.084Z,0.00
2023-05-12T01:44:03.336Z,0.00
2023-05-12T01:45:06.624Z,0.00
2023-05-12T01:46:09.882Z,0.00
2023-05-12T01:47:13.220Z,0.00
2023-05-12T01:48:16.624Z,0.00
2023-05-12T01:49:20.304Z,0.00
2023-05-12T01:50:23.485Z,0.00
2023-05-12T01:51:26.765Z,0.00
2023-05-12T01:52:30.052Z,0.00
2023-05-12T01:53:33.340Z,0.00
2023-05-12T01:54:36.632Z,0.00
2023-05-12T01:55:40.003Z,0.00
2023-05-12T01:56:43.396Z,0.00
2023-05-12T01:57:46.661Z,0.00
2023-05-12T01:58:50.100Z,0.00
2023-05-12T01:59:53.242Z,0.00
2023-05-12T02:00:56.628Z,0.00
2023-05-12T02:02:00.223Z,0.00
2023-05-12T02:03:03.672Z,0.00
2023-05-12T02:04:07.102Z,0.00
2023-05-12T02:05:10.485Z,0.00
2023-05-12T02:06:13.575Z,0.00
2023-05-12T02:07:16.853Z,0.00
2023-05-12T02:08:20.249Z,0.00
2023-05-12T02:09:23.414Z,0.00
2023-05-12T02:10:26.701Z,0.00
2023-05-12T02:11:29.880Z,0.00
2023-05-12T02:12:32.963Z,0.00
2023-05-12T02:13:36.347Z,0.00
2023-05-12T02:14:39.629Z,0.00
2023-05-12T02:15:42.816Z,0.00
2023-05-12T02:16:46.389Z,0.00
2023-05-12T02:17:49.737Z,0.00
2023-05-12T02:18:52.902Z,0.00
2023-05-12T02:19:56.261Z,0.00
2023-05-12T02:20:59.549Z,0.00
2023-05-12T02:22:02.931Z,0.00
2023-05-12T02:23:06.217Z,0.00
2023-05-12T02:24:09.509Z,0.00
2023-05-12T02:25:13.008Z,0.00
2023-05-12T02:26:16.270Z,0.00
2023-05-12T02:27:19.559Z,0.00
2023-05-12T02:28:22.840Z,0.00
2023-05-12T02:29:26.121Z,0.00
2023-05-12T02:30:29.717Z,0.00
2023-05-12T02:31:33.119Z,0.00
2023-05-12T02:32:36.241Z,1.00
2023-05-12T02:33:39.262Z,0.67
2023-05-12T02:34:42.343Z,0.33
2023-05-12T02:35:45.524Z,0.86
2023-05-12T02:36:48.603Z,1.00
2023-05-12T02:37:51.575Z,1.00
2023-05-12T02:38:54.762Z,0.57
2023-05-12T02:39:57.814Z,0.43
2023-05-12T02:41:00.919Z,0.14
2023-05-12T02:42:04.125Z,0.00
2023-05-12T02:43:07.285Z,0.43
2023-05-12T02:44:10.466Z,0.67
2023-05-12T02:45:13.655Z,0.50
2023-05-12T02:46:16.860Z,0.00
2023-05-12T02:47:20.018Z,0.00
2023-05-12T02:48:23.199Z,0.33
2023-05-12T02:49:26.389Z,1.00
2023-05-12T02:50:29.420Z,0.67
2023-05-12T02:51:32.390Z,0.33
2023-05-12T02:52:35.375Z,1.00
2023-05-12T02:53:38.492Z,1.00
2023-05-12T02:54:41.674Z,0.86
2023-05-12T02:55:44.734Z,0.43
2023-05-12T02:56:47.941Z,0.71
2023-05-12T02:57:51.013Z,1.00
2023-05-12T02:58:54.198Z,1.33
2023-05-12T02:59:57.377Z,1.67
2023-05-12T03:01:09.436Z,1.00
2023-05-12T03:02:04.825Z,1.00
2023-05-12T03:03:08.130Z,0.57
2023-05-12T03:04:11.449Z,0.00
2023-05-12T03:05:14.725Z,0.00
2023-05-12T03:06:17.900Z,0.71
2023-05-12T03:07:21.087Z,0.00
2023-05-12T03:08:24.270Z,0.00
2023-05-12T03:09:27.345Z,0.00
2023-05-12T03:10:30.531Z,0.00
2023-05-12T03:11:33.709Z,0.43
2023-05-12T03:12:36.898Z,0.29
2023-05-12T03:13:40.176Z,0.43
2023-05-12T03:14:43.169Z,0.57
2023-05-12T03:15:46.212Z,0.00
2023-05-12T03:16:49.330Z,0.33
2023-05-12T03:17:52.374Z,0.50
2023-05-12T03:18:55.423Z,0.67
2023-05-12T03:19:58.650Z,0.33
2023-05-12T03:21:01.952Z,0.57
2023-05-12T03:22:05.221Z,0.00
2023-05-12T03:23:08.608Z,0.00
2023-05-12T03:24:11.995Z,0.00
2023-05-12T03:25:15.187Z,0.00
2023-05-12T03:26:18.460Z,0.43
2023-05-12T03:27:21.640Z,0.57
2023-05-12T03:28:24.848Z,1.00
2023-05-12T03:29:28.104Z,0.57
2023-05-12T03:30:31.397Z,0.00
2023-05-12T03:31:34.709Z,0.00
2023-05-12T03:32:37.913Z,0.00
2023-05-12T03:33:41.247Z,0.00
2023-05-12T03:34:44.542Z,0.00
2023-05-12T03:35:47.917Z,0.00
2023-05-12T03:36:51.199Z,0.00
2023-05-12T03:37:54.383Z,0.00
2023-05-12T03:38:57.666Z,0.00
2023-05-12T03:40:00.865Z,0.43
2023-05-12T03:41:04.006Z,0.57
2023-05-12T03:42:07.314Z,0.00
2023-05-12T03:43:10.490Z,0.00
2023-05-12T03:44:13.776Z,0.43
2023-05-12T03:45:17.079Z,0.00
2023-05-12T03:46:20.287Z,0.00
2023-05-12T03:47:23.660Z,0.33
2023-05-12T03:48:27.064Z,0.57
2023-05-12T03:49:30.322Z,0.00
2023-05-12T03:50:33.590Z,0.43
2023-05-12T03:51:36.887Z,0.14
2023-05-12T03:52:40.287Z,0.00
2023-05-12T03:53:43.746Z,0.43
2023-05-12T03:54:46.737Z,0.57
2023-05-12T03:55:49.807Z,0.00
2023-05-12T03:56:52.777Z,0.00
2023-05-12T03:57:55.871Z,0.33
2023-05-12T03:58:59.042Z,0.57
2023-05-12T04:00:02.017Z,0.43
2023-05-12T04:01:05.129Z,0.00
2023-05-12T04:02:08.113Z,0.00
2023-05-12T04:03:11.332Z,0.00
2023-05-12T04:04:14.428Z,0.00
2023-05-12T04:05:17.516Z,0.00
2023-05-12T04:06:20.804Z,0.00
2023-05-12T04:07:24.089Z,0.00
2023-05-12T04:08:27.372Z,0.00
2023-05-12T04:09:30.481Z,0.67
2023-05-12T04:10:33.429Z,0.00
2023-05-12T04:11:36.580Z,0.33
2023-05-12T04:12:39.612Z,0.57
2023-05-12T04:13:43.290Z,0.29
2023-05-12T04:14:46.275Z,0.00
2023-05-12T04:15:49.333Z,0.33
2023-05-12T04:16:52.511Z,0.00
2023-05-12T04:17:55.529Z,0.00
2023-05-12T04:18:58.645Z,0.00
2023-05-12T04:20:01.655Z,0.00
2023-05-12T04:21:04.845Z,0.00
2023-05-12T04:22:08.016Z,0.43
2023-05-12T04:23:11.215Z,0.67
2023-05-12T04:24:14.277Z,0.00
2023-05-12T04:25:17.581Z,0.00
2023-05-12T04:26:20.643Z,0.00
2023-05-12T04:27:23.836Z,0.00
2023-05-12T04:28:26.922Z,0.00
2023-05-12T04:29:29.988Z,0.00
2023-05-12T04:30:32.961Z,0.00
2023-05-12T04:31:36.092Z,0.00
2023-05-12T04:32:39.196Z,0.00
2023-05-12T04:33:42.202Z,0.00
2023-05-12T04:34:45.502Z,0.33
2023-05-12T04:35:48.566Z,0.00
2023-05-12T04:36:51.656Z,0.00
2023-05-12T04:37:54.625Z,0.33
2023-05-12T04:38:57.701Z,0.50
2023-05-12T04:40:00.717Z,0.29
2023-05-12T04:41:03.855Z,0.43
2023-05-12T04:42:07.190Z,0.00
2023-05-12T04:43:59.944Z,0.00
2023-05-12T04:44:14.632Z,0.00
2023-05-12T04:45:17.997Z,0.00
2023-05-12T04:46:21.284Z,0.00
2023-05-12T04:47:24.349Z,0.00
2023-05-12T04:48:27.475Z,0.00
2023-05-12T04:49:30.548Z,0.00
2023-05-12T04:50:33.519Z,0.00
2023-05-12T04:51:36.717Z,0.00
2023-05-12T04:52:39.886Z,0.00
2023-05-12T04:53:42.963Z,0.00
2023-05-12T04:54:46.051Z,0.00
2023-05-12T04:55:49.132Z,0.00
2023-05-12T04:56:52.101Z,0.00
2023-05-12T04:57:55.383Z,0.43
2023-05-12T04:58:58.361Z,0.57
2023-05-12T05:00:01.409Z,0.00
2023-05-12T05:01:04.560Z,0.00
2023-05-12T05:02:07.602Z,0.00
2023-05-12T05:03:10.896Z,0.00
2023-05-12T05:04:14.163Z,0.00
2023-05-12T05:05:17.264Z,0.00
2023-05-12T05:06:20.425Z,0.00
2023-05-12T05:07:23.817Z,0.00
2023-05-12T05:08:27.305Z,0.00
2023-05-12T05:09:30.589Z,0.00
2023-05-12T05:10:36.747Z,0.00
2023-05-12T05:11:40.128Z,0.00
2023-05-12T05:12:43.521Z,0.00
2023-05-12T05:13:46.698Z,0.00
2023-05-12T05:14:50.080Z,0.00
2023-05-12T05:15:53.379Z,0.00
2023-05-12T05:16:56.452Z,0.00
2023-05-12T05:18:01.503Z,0.00
2023-05-12T05:19:06.459Z,0.00
2023-05-12T05:20:11.750Z,0.00
2023-05-12T05:21:12.302Z,0.00
2023-05-12T05:22:15.327Z,0.00
2023-05-12T05:23:18.620Z,0.00
2023-05-12T05:24:21.588Z,0.00
2023-05-12T05:25:24.764Z,0.00
2023-05-12T05:26:27.950Z,0.00
2023-05-12T05:27:31.027Z,0.00
2023-05-12T05:28:34.111Z,0.00
2023-05-12T05:29:37.205Z,0.17
2023-05-12T05:30:40.380Z,0.00
2023-05-12T05:31:43.372Z,0.29
2023-05-12T05:32:46.490Z,0.00
2023-05-12T05:33:49.585Z,0.00
2023-05-12T05:34:52.595Z,0.00
2023-05-12T05:35:55.766Z,0.00
2023-05-12T05:36:58.945Z,0.00
2023-05-12T05:38:01.928Z,0.00
2023-05-12T05:39:05.027Z,0.00
2023-05-12T05:40:08.086Z,0.00
2023-05-12T05:41:11.330Z,0.00
2023-05-12T05:42:14.650Z,0.00
2023-05-12T05:43:17.934Z,0.57
2023-05-12T05:44:21.258Z,0.00
2023-05-12T05:45:25.515Z,0.14
2023-05-12T05:46:28.857Z,0.25
2023-05-12T05:47:32.296Z,0.00
2023-05-12T05:48:35.483Z,0.00
2023-05-12T05:49:38.766Z,0.43
2023-05-12T05:50:42.020Z,0.43
2023-05-12T05:51:45.273Z,0.43
2023-05-12T05:52:48.390Z,0.57
2023-05-12T05:53:51.572Z,0.00
2023-05-12T05:54:54.753Z,0.43
2023-05-12T05:55:57.871Z,0.00
2023-05-12T05:57:00.944Z,0.00
2023-05-12T05:58:04.224Z,0.33
2023-05-12T05:59:07.629Z,0.67
2023-05-12T06:00:10.776Z,0.00
2023-05-12T06:01:14.000Z,0.00
2023-05-12T06:02:17.364Z,0.00
2023-05-12T06:03:20.854Z,0.00
2023-05-12T06:04:24.287Z,0.00
2023-05-12T06:05:27.516Z,0.00
2023-05-12T06:06:30.801Z,0.00
2023-05-12T06:07:34.093Z,0.00
2023-05-12T06:08:37.337Z,0.43
2023-05-12T06:09:40.665Z,0.00
2023-05-12T06:10:43.941Z,0.00
2023-05-12T06:11:47.226Z,0.14
2023-05-12T06:12:50.466Z,0.57
2023-05-12T06:13:53.722Z,0.00
2023-05-12T06:14:56.896Z,0.00
2023-05-12T06:15:59.884Z,0.57
2023-05-12T06:17:03.081Z,1.00
2023-05-12T06:18:06.558Z,0.00
2023-05-12T06:19:10.132Z,0.43
2023-05-12T06:20:13.735Z,0.00
2023-05-12T06:21:16.982Z,0.00
2023-05-12T06:22:20.373Z,0.14
2023-05-12T06:23:23.566Z,1.00
2023-05-12T06:24:26.840Z,0.29
2023-05-12T06:25:29.840Z,0.43
2023-05-12T06:26:33.107Z,0.50
2023-05-12T06:27:36.390Z,0.29
2023-05-12T06:28:39.355Z,0.57
2023-05-12T06:29:42.661Z,0.50
2023-05-12T06:30:45.860Z,0.71
2023-05-12T06:31:49.266Z,0.43
2023-05-12T06:32:52.501Z,0.33
2023-05-12T06:33:55.781Z,0.33
2023-05-12T06:34:59.070Z,0.33
2023-05-12T06:36:02.350Z,0.67
2023-05-12T06:37:05.642Z,0.43
2023-05-12T06:38:09.032Z,1.00
2023-05-12T06:39:12.320Z,0.57
2023-05-12T06:40:18.688Z,0.00
2023-05-12T06:41:21.952Z,0.00
2023-05-12T06:42:25.443Z,0.00
2023-05-12T06:43:28.727Z,0.57
2023-05-12T06:44:31.682Z,0.00
2023-05-12T06:45:34.886Z,0.43
2023-05-12T06:46:38.013Z,0.67
2023-05-12T06:47:41.080Z,0.00
2023-05-12T06:48:44.232Z,0.00
2023-05-12T06:49:47.312Z,0.43
2023-05-12T06:50:50.382Z,0.57
2023-05-12T06:51:53.565Z,0.33
2023-05-12T06:52:56.850Z,0.67
2023-05-12T06:53:59.935Z,1.00
2023-05-12T06:55:02.916Z,0.67
2023-05-12T06:56:05.988Z,0.00
2023-05-12T06:57:09.699Z,0.43
2023-05-12T06:58:12.959Z,0.43
2023-05-12T06:59:16.246Z,0.67
2023-05-12T07:00:19.529Z,0.00
2023-05-12T07:01:22.735Z,0.00
2023-05-12T07:02:25.970Z,0.33
2023-05-12T07:03:29.419Z,1.00
2023-05-12T07:04:32.574Z,1.00
2023-05-12T07:05:35.874Z,0.67
2023-05-12T07:06:39.238Z,0.00
2023-05-12T07:07:42.538Z,0.43
2023-05-12T07:08:45.798Z,0.00
2023-05-12T07:09:49.059Z,0.00
2023-05-12T07:10:52.268Z,0.00
2023-05-12T07:11:55.658Z,0.00
2023-05-12T07:12:59.156Z,0.00
2023-05-12T07:14:02.529Z,0.43
2023-05-12T07:15:06.018Z,0.57
2023-05-12T07:16:09.430Z,0.00
2023-05-12T07:17:12.790Z,0.00
2023-05-12T07:18:16.082Z,1.00
2023-05-12T07:19:19.379Z,0.67
2023-05-12T07:20:22.652Z,0.33
2023-05-12T07:21:25.732Z,1.00
2023-05-12T07:22:28.657Z,1.00
2023-05-12T07:23:31.781Z,0.71
2023-05-12T07:24:34.876Z,0.33
2023-05-12T07:25:38.208Z,1.00
2023-05-12T07:26:41.226Z,0.67
2023-05-12T07:27:44.301Z,0.00
2023-05-12T07:28:47.286Z,0.43
2023-05-12T07:29:50.459Z,1.00
2023-05-12T07:30:53.668Z,1.00
2023-05-12T07:31:56.831Z,0.67
2023-05-12T07:33:00.038Z,0.00
2023-05-12T07:34:03.305Z,0.00
2023-05-12T07:35:06.478Z,0.71
2023-05-12T07:36:09.417Z,0.57
2023-05-12T07:37:12.430Z,0.33
2023-05-12T07:38:15.568Z,1.00
2023-05-12T07:39:18.595Z,1.00
2023-05-12T07:40:21.770Z,1.00
2023-05-12T07:41:24.964Z,1.00
2023-05-12T07:42:28.068Z,1.00
2023-05-12T07:43:31.120Z,0.67
2023-05-12T07:44:34.300Z,0.43
2023-05-12T07:45:37.371Z,0.57
2023-05-12T07:46:40.585Z,0.43
2023-05-12T07:47:43.696Z,1.00
2023-05-12T07:48:46.703Z,0.67
2023-05-12T07:49:49.826Z,0.86
2023-05-12T07:50:52.881Z,1.00
2023-05-12T07:51:55.948Z,1.00
2023-05-12T07:52:59.137Z,1.00
2023-05-12T07:54:02.238Z,1.00
2023-05-12T07:55:05.156Z,1.00
2023-05-12T07:56:08.197Z,1.00
2023-05-12T07:57:11.356Z,0.67
2023-05-12T07:58:14.400Z,0.71
2023-05-12T07:59:17.413Z,1.00
2023-05-12T08:00:20.487Z,0.67
2023-05-12T08:01:23.458Z,0.00
2023-05-12T08:02:26.630Z,0.86
2023-05-12T08:03:29.752Z,1.00
2023-05-12T08:04:32.715Z,0.67
2023-05-12T08:05:35.719Z,0.43
2023-05-12T08:06:38.786Z,0.57
2023-05-12T08:07:41.744Z,1.00
2023-05-12T08:08:44.811Z,1.00
2023-05-12T08:09:48.011Z,1.00
2023-05-12T08:10:51.178Z,0.57
2023-05-12T08:11:54.257Z,0.33
2023-05-12T08:12:57.374Z,1.00
2023-05-12T08:14:00.417Z,1.00
2023-05-12T08:15:03.604Z,1.00
2023-05-12T08:16:06.733Z,1.00
2023-05-12T08:17:09.793Z,1.00
2023-05-12T08:18:12.848Z,1.00
2023-05-12T08:19:15.952Z,1.00
2023-05-12T08:20:19.022Z,0.57
2023-05-12T08:21:22.084Z,1.00
2023-05-12T08:22:25.254Z,1.00
2023-05-12T08:23:28.250Z,1.00
2023-05-12T08:24:31.427Z,1.00
2023-05-12T08:25:34.473Z,1.67
2023-05-12T08:26:37.576Z,1.00
2023-05-12T08:27:40.623Z,1.57
2023-05-12T08:28:43.649Z,1.00
2023-05-12T08:29:46.604Z,1.00
2023-05-12T08:30:49.732Z,1.14
2023-05-12T08:31:52.764Z,1.57
2023-05-12T08:32:55.880Z,1.00
2023-05-12T08:34:09.072Z,1.17
2023-05-12T08:35:03.232Z,1.00
2023-05-12T08:36:06.320Z,1.33
2023-05-12T08:37:09.350Z,1.00
2023-05-12T08:38:12.372Z,1.43
2023-05-12T08:39:15.445Z,2.00
2023-05-12T08:40:18.426Z,1.67
2023-05-12T08:41:24.510Z,1.14
2023-05-12T08:42:25.617Z,1.37
2023-05-12T08:43:28.555Z,1.33
2023-05-12T08:44:31.597Z,2.00
2023-05-12T08:45:34.557Z,2.00
2023-05-12T08:46:37.591Z,1.83
2023-05-12T08:47:40.607Z,2.00
2023-05-12T08:48:43.775Z,1.57
2023-05-12T08:49:46.960Z,2.00
2023-05-12T08:50:50.090Z,1.57
2023-05-12T08:51:57.832Z,1.14
2023-05-12T08:52:57.224Z,2.00
2023-05-12T08:54:00.315Z,1.67
2023-05-12T08:55:03.739Z,1.17
2023-05-12T08:57:11.114Z,2.43
2023-05-12T08:58:14.045Z,2.67
2023-05-12T08:59:17.131Z,2.00
2023-05-12T09:00:21.599Z,2.00
2023-05-12T09:01:25.039Z,1.44
2023-05-12T09:02:30.909Z,1.17
2023-05-12T09:03:34.268Z,1.50
2023-05-12T09:04:36.290Z,1.50
2023-05-12T09:05:39.397Z,1.43
2023-05-12T09:06:42.486Z,2.00
2023-05-12T09:07:45.656Z,2.00
2023-05-12T09:09:52.651Z,1.33
2023-05-12T09:10:55.716Z,2.00
2023-05-12T09:11:58.865Z,2.00
2023-05-12T09:13:01.846Z,2.00
2023-05-12T09:14:04.886Z,2.00
2023-05-12T09:15:07.835Z,2.00
2023-05-12T09:16:10.948Z,2.33
2023-05-12T09:17:14.098Z,2.43
2023-05-12T09:18:17.177Z,1.29
2023-05-12T09:19:20.225Z,2.00
2023-05-12T09:20:31.041Z,2.00
2023-05-12T09:21:27.390Z,1.50
2023-05-12T09:22:30.525Z,1.43
2023-05-12T09:23:33.491Z,1.57
2023-05-12T09:24:36.692Z,1.33
2023-05-12T09:25:40.058Z,2.00
2023-05-12T09:26:43.419Z,1.67
2023-05-12T09:27:46.635Z,1.50
2023-05-12T09:28:49.816Z,2.00
2023-05-12T09:29:59.190Z,1.33
2023-05-12T09:30:57.297Z,2.00
2023-05-12T09:32:00.691Z,2.00
2023-05-12T09:33:03.796Z,2.00
2023-05-12T09:34:07.152Z,2.00
2023-05-12T09:35:10.197Z,1.57
2023-05-12T09:36:13.235Z,1.43
2023-05-12T09:37:16.294Z,2.00
2023-05-12T09:38:19.262Z,2.00
2023-05-12T09:39:22.470Z,1.67
2023-05-12T09:40:25.425Z,1.43
2023-05-12T09:41:28.522Z,2.00
2023-05-12T09:42:31.580Z,1.67
2023-05-12T09:43:34.656Z,1.43
2023-05-12T09:44:37.721Z,1.57
2023-05-12T09:45:43.706Z,1.17
2023-05-12T09:46:46.881Z,1.75
2023-05-12T09:47:50.191Z,2.00
2023-05-12T09:48:53.132Z,1.67
2023-05-12T09:49:56.411Z,1.33
2023-05-12T09:50:59.481Z,2.00
2023-05-12T09:52:02.685Z,1.71
2023-05-12T09:53:06.035Z,2.00
2023-05-12T09:54:09.242Z,2.00
2023-05-12T09:55:12.530Z,1.57
2023-05-12T09:56:15.822Z,1.43
2023-05-12T09:57:18.989Z,2.00
2023-05-12T09:58:22.177Z,2.00
2023-05-12T09:59:25.360Z,2.00
2023-05-12T10:00:46.145Z,2.00
2023-05-12T10:02:35.304Z,2.00
2023-05-12T10:03:38.620Z,2.00
2023-05-12T10:04:41.949Z,2.00
2023-05-12T10:05:44.958Z,2.00
2023-05-12T10:06:48.151Z,2.43
2023-05-12T10:07:51.321Z,2.29
2023-05-12T10:08:54.509Z,2.00
2023-05-12T10:09:57.809Z,2.00
2023-05-12T10:11:01.079Z,2.00
2023-05-12T10:12:04.390Z,2.57
2023-05-12T10:13:07.639Z,1.57
2023-05-12T10:14:10.922Z,1.43
2023-05-12T10:15:14.243Z,2.00
2023-05-12T10:16:17.667Z,2.00
2023-05-12T10:17:20.999Z,2.00
2023-05-12T10:18:24.054Z,2.00
2023-05-12T10:19:27.313Z,2.00
2023-05-12T10:20:31.562Z,2.00
2023-05-12T10:21:34.844Z,2.00
2023-05-12T10:22:38.424Z,1.57
2023-05-12T10:23:41.621Z,1.43
2023-05-12T10:24:44.794Z,1.71
2023-05-12T10:25:47.876Z,2.00
2023-05-12T10:26:50.963Z,1.83
2023-05-12T10:27:54.138Z,2.00
2023-05-12T10:28:57.317Z,2.00
2023-05-12T10:30:00.407Z,1.71
2023-05-12T10:31:03.617Z,1.67
2023-05-12T10:32:07.028Z,1.33
2023-05-12T10:33:11.208Z,2.00
2023-05-12T10:34:14.127Z,2.00
2023-05-12T10:35:17.143Z,2.00
2023-05-12T10:36:20.120Z,2.00
2023-05-12T10:37:23.677Z,2.00
2023-05-12T10:38:26.836Z,1.57
2023-05-12T10:47:53.060Z,2.00
2023-05-12T10:57:18.865Z,2.00
2023-05-12T10:58:21.101Z,2.50
2023-05-12T10:59:24.975Z,2.71
2023-05-12T11:00:29.073Z,2.00
2023-05-12T11:01:32.513Z,2.00
2023-05-12T11:02:36.914Z,2.00
2023-05-12T11:03:41.187Z,2.00
2023-05-12T11:04:45.383Z,2.00
2023-05-12T11:05:49.066Z,2.43
2023-05-12T11:06:53.236Z,2.57
2023-05-12T11:07:57.098Z,2.37
2023-05-12T11:09:00.759Z,2.00
2023-05-12T11:10:05.334Z,2.00
2023-05-12T11:11:08.976Z,2.50
2023-05-12T11:12:12.616Z,2.62
2023-05-12T11:13:15.870Z,2.57
2023-05-12T11:14:19.074Z,2.00
2023-05-12T11:15:25.360Z,2.33
2023-05-12T11:16:26.897Z,2.50
2023-05-12T11:17:30.349Z,2.43
2023-05-12T11:18:33.650Z,2.14
2023-05-12T11:19:37.010Z,2.00
2023-05-12T11:20:40.377Z,2.00
2023-05-12T11:21:43.578Z,2.43
2023-05-12T11:22:46.773Z,2.00
2023-05-12T11:23:50.002Z,2.57
2023-05-12T11:24:53.297Z,2.00
2023-05-12T11:25:56.720Z,2.00
2023-05-12T11:26:59.861Z,2.00
2023-05-12T11:28:03.106Z,2.00
2023-05-12T11:29:06.268Z,1.57
2023-05-12T11:30:09.431Z,1.86
2023-05-12T11:31:12.652Z,1.67
2023-05-12T11:32:15.929Z,1.83
2023-05-12T11:33:19.301Z,2.00
2023-05-12T11:34:22.480Z,2.00
2023-05-12T11:35:25.676Z,2.00
2023-05-12T11:36:28.857Z,1.14
2023-05-12T11:37:31.925Z,2.00
2023-05-12T11:38:35.031Z,2.00
2023-05-12T11:39:38.052Z,2.00
2023-05-12T11:40:41.104Z,1.67
2023-05-12T11:41:45.851Z,1.43
2023-05-12T11:42:49.094Z,2.50
2023-05-12T11:43:52.149Z,2.00
2023-05-12T11:44:55.124Z,1.33
2023-05-12T11:45:58.181Z,2.00
2023-05-12T11:47:01.181Z,2.33
2023-05-12T11:48:04.722Z,3.00
2023-05-12T11:49:07.901Z,2.67
2023-05-12T11:50:11.091Z,2.67
2023-05-12T11:51:14.098Z,3.57
2023-05-12T11:52:17.259Z,3.43
2023-05-12T11:53:20.680Z,4.14
2023-05-12T11:54:23.959Z,4.00
2023-05-12T11:55:27.263Z,4.43
2023-05-12T11:56:30.631Z,5.00
2023-05-12T11:57:33.842Z,4.57
2023-05-12T11:58:36.998Z,4.00
2023-05-12T11:59:40.183Z,3.83
2023-05-12T12:00:43.362Z,4.00
2023-05-12T12:01:46.806Z,4.14
2023-05-12T12:02:50.174Z,4.43
2023-05-12T12:03:53.475Z,4.57
2023-05-12T12:04:56.703Z,4.00
2023-05-12T12:06:00.006Z,4.00
2023-05-12T12:07:03.290Z,3.57
2023-05-12T12:08:06.671Z,3.57
2023-05-12T12:09:10.039Z,3.57
2023-05-12T12:10:13.446Z,3.43
2023-05-12T12:11:16.611Z,4.43
2023-05-12T12:12:19.489Z,4.83
2023-05-12T12:13:22.685Z,4.43
2023-05-12T12:14:25.761Z,4.00
2023-05-12T12:15:28.833Z,4.33
2023-05-12T12:16:32.135Z,4.67
2023-05-12T12:17:35.231Z,4.14
2023-05-12T12:18:38.296Z,4.57
2023-05-12T12:19:41.458Z,4.57
2023-05-12T12:20:44.541Z,4.00
2023-05-12T12:21:47.630Z,3.67
2023-05-12T12:22:50.603Z,3.71
2023-05-12T12:23:53.583Z,4.00
2023-05-12T12:24:56.753Z,4.33
2023-05-12T12:25:59.740Z,4.57
2023-05-12T12:27:02.812Z,4.57
2023-05-12T12:28:06.501Z,4.33
2023-05-12T12:29:09.545Z,4.43
2023-05-12T12:30:12.873Z,5.00
2023-05-12T12:31:16.076Z,5.43
2023-05-12T12:32:19.242Z,6.00
2023-05-12T12:33:22.691Z,5.57
2023-05-12T12:34:25.925Z,5.00
2023-05-12T12:35:29.052Z,5.00
2023-05-12T12:36:32.310Z,5.00
2023-05-12T12:37:35.558Z,5.00
2023-05-12T12:38:38.501Z,5.43
2023-05-12T12:39:42.007Z,5.57
2023-05-12T12:40:46.119Z,4.86
2023-05-12T12:41:49.099Z,4.75
2023-05-12T12:42:52.175Z,5.00
2023-05-12T12:43:55.219Z,5.17
2023-05-12T12:44:58.439Z,5.17
2023-05-12T12:46:01.414Z,5.57
2023-05-12T12:47:04.685Z,6.00
2023-05-12T12:48:07.807Z,7.00
2023-05-12T12:49:12.992Z,6.57
2023-05-12T12:50:15.982Z,6.00
2023-05-12T12:51:19.170Z,5.67
2023-05-12T12:52:22.357Z,5.43
2023-05-12T12:53:25.429Z,6.43
2023-05-12T12:54:28.611Z,6.67
2023-05-12T12:55:31.737Z,6.00
2023-05-12T12:56:34.871Z,6.43
2023-05-12T12:57:38.072Z,6.67
2023-05-12T12:58:41.229Z,6.00
2023-05-12T12:59:44.524Z,5.00
2023-05-12T13:00:47.723Z,5.43
2023-05-12T13:01:51.012Z,6.00
2023-05-12T13:02:54.438Z,5.57
2023-05-12T13:03:57.652Z,5.86
2023-05-12T13:05:00.891Z,6.00
2023-05-12T13:06:04.082Z,5.57
2023-05-12T13:07:07.310Z,6.00
2023-05-12T13:08:10.490Z,6.57
2023-05-12T13:09:13.678Z,7.00
2023-05-12T13:10:16.959Z,7.00
2023-05-12T13:11:20.229Z,6.57
2023-05-12T13:12:23.522Z,7.43
2023-05-12T13:13:26.797Z,7.57
2023-05-12T13:14:30.006Z,7.00
2023-05-12T13:15:33.150Z,7.00
2023-05-12T13:16:36.333Z,7.00
2023-05-12T13:17:39.704Z,7.00
2023-05-12T13:18:42.996Z,6.57
2023-05-12T13:19:46.198Z,6.57
2023-05-12T13:20:49.615Z,6.57
2023-05-12T13:21:52.570Z,6.86
2023-05-12T13:22:55.864Z,7.57
2023-05-12T13:23:59.039Z,6.57
2023-05-12T13:25:02.194Z,6.00
2023-05-12T13:26:05.296Z,6.67
2023-05-12T13:27:08.269Z,7.50
2023-05-12T13:28:11.428Z,6.57
2023-05-12T13:29:14.685Z,6.43
2023-05-12T13:30:17.930Z,7.00
2023-05-12T13:31:21.237Z,7.33
2023-05-12T13:32:24.490Z,7.67
2023-05-12T13:33:27.766Z,6.57
2023-05-12T13:34:31.067Z,6.43
2023-05-12T13:35:34.136Z,6.71
2023-05-12T13:36:37.205Z,6.83
2023-05-12T13:37:40.317Z,7.00
2023-05-12T13:38:43.278Z,6.57
2023-05-12T13:39:46.274Z,6.33
2023-05-12T13:40:49.235Z,6.67
2023-05-12T13:41:52.226Z,6.00
2023-05-12T13:42:55.278Z,6.67
2023-05-12T13:43:58.366Z,6.67
2023-05-12T13:45:01.349Z,7.00
2023-05-12T13:46:04.311Z,7.00
2023-05-12T13:47:09.008Z,7.00
2023-05-12T13:48:13.113Z,6.57
2023-05-12T13:49:16.015Z,6.00
2023-05-12T13:50:19.061Z,6.43
2023-05-12T13:51:22.275Z,6.33
2023-05-12T13:52:25.248Z,5.43
2023-05-12T13:53:28.341Z,6.57
2023-05-12T13:54:31.412Z,6.00
2023-05-12T13:55:34.622Z,5.83
2023-05-12T13:56:37.767Z,5.14
2023-05-12T13:57:40.960Z,5.00
2023-05-12T13:58:43.929Z,5.00
2023-05-12T13:59:46.915Z,5.00
2023-05-12T14:00:50.009Z,4.43
2023-05-12T14:01:53.212Z,5.00
2023-05-12T14:02:56.383Z,5.00
2023-05-12T14:03:59.437Z,5.00
2023-05-12T14:05:02.415Z,4.57
2023-05-12T14:06:05.401Z,5.00
2023-05-12T14:07:08.916Z,4.67
2023-05-12T14:08:11.965Z,4.00
2023-05-12T14:09:14.928Z,4.33
2023-05-12T14:10:18.003Z,5.00
2023-05-12T14:11:20.987Z,5.67
2023-05-12T14:12:24.171Z,5.00
2023-05-12T14:13:27.146Z,5.00
2023-05-12T14:14:30.327Z,4.57
2023-05-12T14:15:47.310Z,4.33
2023-05-12T14:16:37.432Z,5.00
2023-05-12T14:17:40.552Z,5.00
2023-05-12T14:18:44.015Z,4.57
2023-05-12T14:19:47.159Z,4.00
2023-05-12T14:20:50.256Z,4.43
2023-05-12T14:21:53.320Z,4.43